Time;durP1;ratioP1;P1;durP2;ratioP2;P2;SDS_P1;SDS_P2;PMS_P1;PMS_P2;Temp;Humidity;BMP_temperature;BMP_pressure;BME280_temperature;BME280_humidity;BME280_pressure;Samples;Min_cycle;Max_cycle;Signal;HPM_P1;HPM_P2
2022/07/05 00:01:00;;;;;;;2.28;2.08;;;;;;;22.41;48.68;98363.44;5014126;28;20574;-65
2022/07/05 00:03:26;;;;;;;2.20;2.00;;;;;;;22.43;48.80;98376.44;5019976;28;20181;-65
2022/07/05 00:05:52;;;;;;;2.13;1.75;;;;;;;22.40;49.81;98376.78;5017291;28;20343;-65
2022/07/05 00:08:18;;;;;;;1.77;1.67;;;;;;;22.34;50.24;98366.97;5019715;28;20188;-65
2022/07/05 00:10:43;;;;;;;2.08;1.98;;;;;;;22.41;50.16;98367.88;5013834;28;20186;-65
2022/07/05 00:13:09;;;;;;;3.33;2.33;;;;;;;22.42;50.38;98374.78;5016093;28;20765;-66
2022/07/05 00:15:35;;;;;;;2.20;2.00;;;;;;;22.28;51.00;98372.97;5015943;28;20272;-65
2022/07/05 00:18:00;;;;;;;2.00;1.90;;;;;;;22.25;51.16;98362.78;5025197;28;20267;-65
2022/07/05 00:20:26;;;;;;;1.98;1.88;;;;;;;22.35;51.00;98361.53;5010389;28;20671;-65
2022/07/05 00:22:51;;;;;;;2.05;1.95;;;;;;;22.34;50.93;98359.88;5019092;28;20581;-65
2022/07/05 00:25:17;;;;;;;2.03;1.92;;;;;;;22.25;50.43;98354.88;4997636;28;20259;-65
2022/07/05 00:27:42;;;;;;;2.28;2.08;;;;;;;22.34;49.39;98357.25;5016952;28;20260;-65
2022/07/05 00:30:09;;;;;;;1.95;1.85;;;;;;;22.34;49.18;98362.53;5017173;28;20185;-64
2022/07/05 00:32:36;;;;;;;2.83;1.85;;;;;;;22.32;49.68;98363.69;5017160;28;20204;-65
2022/07/05 00:35:02;;;;;;;2.25;2.10;;;;;;;22.10;50.57;98362.75;5016631;28;20255;-65
2022/07/05 00:37:28;;;;;;;4.45;2.00;;;;;;;21.97;50.54;98359.06;5011080;28;20204;-65
2022/07/05 00:39:53;;;;;;;2.60;1.83;;;;;;;21.82;50.73;98358.19;5008608;28;20178;-64
2022/07/05 00:42:19;;;;;;;2.17;2.08;;;;;;;21.74;50.73;98359.06;5012216;28;20236;-67
2022/07/05 00:44:44;;;;;;;2.92;2.30;;;;;;;21.87;50.64;98363.75;5016703;28;20196;-64
2022/07/05 00:47:11;;;;;;;1.75;1.65;;;;;;;21.91;50.88;98371.13;5015985;28;20269;-65
2022/07/05 00:49:38;;;;;;;2.50;2.00;;;;;;;21.78;52.26;98364.81;5017461;28;20205;-65
2022/07/05 00:52:04;;;;;;;2.15;1.80;;;;;;;21.67;52.74;98358.16;5022527;28;20198;-66
2022/07/05 00:54:33;;;;;;;2.30;2.10;;;;;;;21.61;52.86;98363.28;5016322;28;20218;-65
2022/07/05 00:56:59;;;;;;;2.35;2.03;;;;;;;21.55;52.52;98356.03;5025574;28;20186;-65
2022/07/05 00:59:25;;;;;;;2.97;1.85;;;;;;;21.75;51.39;98352.00;5015359;28;20196;-65
2022/07/05 01:01:51;;;;;;;1.80;1.70;;;;;;;21.79;50.67;98351.47;5013714;28;20761;-66
2022/07/05 01:04:16;;;;;;;2.17;1.98;;;;;;;21.78;51.07;98346.38;5024320;28;20185;-65
2022/07/05 01:06:44;;;;;;;4.85;2.33;;;;;;;21.80;50.89;98337.28;5015482;28;20225;-65
2022/07/05 01:09:16;;;;;;;2.00;1.90;;;;;;;21.82;50.33;98330.06;5017016;28;20196;-65
2022/07/05 01:11:48;;;;;;;3.72;1.75;;;;;;;21.90;50.50;98337.03;5018522;28;20212;-65
2022/07/05 01:14:16;;;;;;;2.10;1.90;;;;;;;21.84;50.67;98332.50;5025400;28;20193;-65
2022/07/05 01:16:42;;;;;;;2.13;1.95;;;;;;;21.85;50.15;98323.63;5020087;28;20200;-65
2022/07/05 01:19:10;;;;;;;4.25;1.98;;;;;;;21.76;50.28;98324.66;5020838;28;20183;-65
2022/07/05 01:21:44;;;;;;;2.03;1.83;;;;;;;21.80;50.10;98321.47;5019029;28;20634;-65
2022/07/05 01:24:12;;;;;;;2.20;2.10;;;;;;;21.72;50.30;98323.38;5014559;28;20209;-65
2022/07/05 01:26:38;;;;;;;2.03;1.92;;;;;;;21.66;50.38;98316.13;5018382;28;20907;-65
2022/07/05 01:29:05;;;;;;;2.53;2.00;;;;;;;21.57;50.78;98320.66;5015018;28;20188;-65
2022/07/05 01:31:30;;;;;;;2.63;2.22;;;;;;;21.70;50.46;98333.28;5016913;28;20186;-65
2022/07/05 01:33:56;;;;;;;2.33;2.17;;;;;;;21.72;50.42;98340.00;5014736;28;20189;-65
2022/07/05 01:36:22;;;;;;;2.53;2.33;;;;;;;21.79;50.22;98332.22;5008332;28;20174;-65
2022/07/05 01:38:48;;;;;;;2.10;1.90;;;;;;;21.75;50.09;98330.94;5010007;28;20186;-65
2022/07/05 01:41:13;;;;;;;2.72;1.90;;;;;;;21.80;49.81;98332.03;5011270;28;20191;-65
2022/07/05 01:43:39;;;;;;;2.03;1.92;;;;;;;21.72;49.76;98333.91;5014346;28;20621;-65
2022/07/05 01:46:05;;;;;;;2.42;1.80;;;;;;;21.76;49.50;98322.84;5014528;28;20206;-66
2022/07/05 01:48:33;;;;;;;2.30;2.10;;;;;;;21.78;49.39;98317.38;5010810;28;20178;-65
2022/07/05 01:51:05;;;;;;;2.25;2.05;;;;;;;21.71;49.72;98316.47;5015900;28;20174;-65
2022/07/05 01:53:32;;;;;;;2.63;2.25;;;;;;;21.73;49.63;98310.03;5018014;28;20248;-65
2022/07/05 01:55:59;;;;;;;2.97;1.90;;;;;;;21.71;49.50;98306.75;5018770;28;20197;-65
2022/07/05 01:58:25;;;;;;;4.57;2.08;;;;;;;21.61;50.10;98310.59;5022144;28;20190;-65
2022/07/05 02:00:52;;;;;;;2.33;2.13;;;;;;;21.61;50.18;98310.59;5014699;28;20212;-65
2022/07/05 02:03:18;;;;;;;2.58;2.17;;;;;;;21.54;50.75;98299.94;5028528;28;20620;-65
2022/07/05 02:05:44;;;;;;;2.63;1.85;;;;;;;21.50;50.64;98309.19;5022935;28;20235;-65
2022/07/05 02:08:11;;;;;;;2.17;2.00;;;;;;;21.59;50.54;98309.94;5016574;28;20256;-65
2022/07/05 02:10:39;;;;;;;2.45;1.90;;;;;;;21.57;50.52;98318.00;5019607;28;20189;-65
2022/07/05 02:13:05;;;;;;;3.33;2.03;;;;;;;21.62;51.15;98326.22;5019752;28;20189;-64
2022/07/05 02:15:35;;;;;;;2.80;2.00;;;;;;;21.68;52.05;98335.28;5020424;28;20182;-64
2022/07/05 02:18:01;;;;;;;2.05;1.95;;;;;;;21.35;54.25;98341.72;5017360;28;20616;-65
2022/07/05 02:20:28;;;;;;;2.75;2.20;;;;;;;21.30;55.20;98352.78;5010171;28;20559;-66
2022/07/05 02:22:53;;;;;;;3.47;2.00;;;;;;;20.97;56.33;98335.50;5020023;28;20188;-64
2022/07/05 02:25:19;;;;;;;2.20;2.00;;;;;;;21.25;54.95;98339.31;5025368;28;20746;-65
2022/07/05 02:27:45;;;;;;;2.22;2.13;;;;;;;21.06;56.73;98338.91;5019548;28;20614;-65
2022/07/05 02:30:11;;;;;;;2.10;2.00;;;;;;;21.03;57.26;98347.97;5020173;28;20670;-64
2022/07/05 02:32:36;;;;;;;1.95;1.70;;;;;;;21.17;57.24;98343.78;5018723;28;20178;-65
2022/07/05 02:35:03;;;;;;;6.13;2.00;;;;;;;21.30;57.26;98355.41;5020304;28;20193;-64
2022/07/05 02:37:29;;;;;;;2.05;1.90;;;;;;;21.46;54.89;98360.56;5019001;28;20193;-65
2022/07/05 02:39:54;;;;;;;4.85;2.03;;;;;;;21.61;51.66;98356.19;5013232;28;21012;-65
2022/07/05 02:42:20;;;;;;;2.50;2.20;;;;;;;21.66;53.02;98361.75;5027340;28;20181;-65
2022/07/05 02:44:45;;;;;;;1.70;1.60;;;;;;;21.74;51.15;98374.06;5016616;28;20185;-66
2022/07/05 02:47:11;;;;;;;2.00;1.80;;;;;;;21.64;51.08;98368.19;5015984;28;20699;-66
2022/07/05 02:49:36;;;;;;;3.30;2.35;;;;;;;21.64;52.25;98368.19;5015899;28;20648;-66
2022/07/05 02:52:01;;;;;;;4.03;2.42;;;;;;;21.65;53.36;98361.91;5021696;28;20193;-64
2022/07/05 02:54:27;;;;;;;2.35;2.15;;;;;;;21.32;54.69;98365.75;5018639;28;20197;-65
2022/07/05 02:56:52;;;;;;;3.70;2.13;;;;;;;21.32;54.76;98368.41;5021591;28;20177;-65
2022/07/05 02:59:18;;;;;;;2.00;1.90;;;;;;;21.56;52.76;98360.34;5015729;28;20189;-65
2022/07/05 03:01:43;;;;;;;3.53;2.30;;;;;;;21.82;51.19;98360.84;5013218;28;20194;-66
2022/07/05 03:04:09;;;;;;;1.92;1.83;;;;;;;21.85;50.61;98336.78;5011881;28;20178;-65
2022/07/05 03:06:36;;;;;;;2.55;2.15;;;;;;;21.94;51.55;98362.06;5022949;28;20202;-65
2022/07/05 03:09:01;;;;;;;2.28;1.73;;;;;;;22.06;50.28;98358.81;5022102;28;20193;-65
2022/07/05 03:11:27;;;;;;;5.45;2.63;;;;;;;21.83;50.89;98352.75;5016911;28;20186;-65
2022/07/05 03:13:52;;;;;;;4.53;2.00;;;;;;;21.91;51.22;98363.22;5017744;28;20232;-65
2022/07/05 03:16:18;;;;;;;1.80;1.70;;;;;;;21.87;52.66;98371.66;5018941;28;20232;-66
2022/07/05 03:18:43;;;;;;;3.22;1.98;;;;;;;21.96;51.98;98368.78;5022932;28;20192;-66
2022/07/05 03:21:08;;;;;;;2.72;2.13;;;;;;;22.13;51.36;98366.81;5040581;28;21095;-65
2022/07/05 03:23:34;;;;;;;4.65;2.25;;;;;;;22.18;50.31;98349.50;5022395;28;20698;-66
2022/07/05 03:25:59;;;;;;;2.03;1.92;;;;;;;22.19;50.79;98368.75;5013549;28;20232;-65
2022/07/05 03:28:25;;;;;;;3.78;2.58;;;;;;;22.16;52.74;98374.38;5016740;28;20557;-66
2022/07/05 03:30:50;;;;;;;4.07;2.25;;;;;;;22.22;54.14;98374.50;5012376;28;20281;-65
2022/07/05 03:33:16;;;;;;;2.00;1.90;;;;;;;22.38;53.85;98370.91;5017858;28;20177;-65
2022/07/05 03:35:41;;;;;;;2.65;2.45;;;;;;;22.35;54.39;98368.59;5017245;28;20178;-65
2022/07/05 03:38:06;;;;;;;4.78;2.47;;;;;;;22.42;55.08;98369.50;5019324;28;20205;-66
2022/07/05 03:40:32;;;;;;;3.50;2.30;;;;;;;22.56;54.63;98369.56;5023208;28;20690;-65
2022/07/05 03:42:57;;;;;;;2.53;2.33;;;;;;;22.63;54.70;98364.41;5016655;28;20184;-66
2022/07/05 03:45:23;;;;;;;6.05;2.88;;;;;;;22.65;53.78;98355.28;5011139;28;20193;-66
2022/07/05 03:47:48;;;;;;;2.20;2.10;;;;;;;22.68;53.48;98346.19;5012582;28;20202;-66
2022/07/05 03:50:13;;;;;;;3.95;2.20;;;;;;;22.56;52.35;98334.47;5028050;28;20324;-64
2022/07/05 03:52:39;;;;;;;2.60;2.08;;;;;;;22.59;49.89;98342.84;5022173;28;20198;-64
2022/07/05 03:55:05;;;;;;;3.75;1.98;;;;;;;22.58;49.31;98343.00;5005504;28;20232;-65
2022/07/05 03:57:30;;;;;;;2.10;1.73;;;;;;;22.33;49.88;98338.97;5017541;28;20188;-65
2022/07/05 03:59:56;;;;;;;3.88;1.83;;;;;;;22.13;50.62;98324.66;5020221;28;20178;-66
2022/07/05 04:02:21;;;;;;;2.53;2.33;;;;;;;21.87;51.54;98326.88;5020190;28;20181;-65
2022/07/05 04:04:47;;;;;;;2.85;2.00;;;;;;;22.02;51.71;98325.13;5013908;28;20189;-67
2022/07/05 04:07:12;;;;;;;2.28;2.10;;;;;;;22.14;51.66;98326.31;5024023;28;20202;-65
2022/07/05 04:09:38;;;;;;;4.90;2.33;;;;;;;22.23;51.54;98333.13;5024035;28;20178;-66
2022/07/05 04:12:04;;;;;;;2.65;2.15;;;;;;;22.32;51.34;98330.22;5020146;28;20182;-65
2022/07/05 04:14:30;;;;;;;2.75;2.25;;;;;;;22.40;52.00;98338.06;5023706;28;20181;-66
2022/07/05 04:16:56;;;;;;;6.25;2.72;;;;;;;22.29;54.77;98340.31;4998165;28;20647;-66
2022/07/05 04:19:21;;;;;;;3.83;2.67;;;;;;;22.16;55.57;98309.31;4997777;28;20182;-65
2022/07/05 04:21:47;;;;;;;3.60;2.00;;;;;;;22.36;54.08;98336.78;5003539;28;20588;-65
2022/07/05 04:24:12;;;;;;;4.22;2.70;;;;;;;22.40;55.13;98329.34;5018405;28;20182;-66
2022/07/05 04:26:38;;;;;;;3.95;2.63;;;;;;;22.53;54.94;98334.81;5013389;28;20212;-66
2022/07/05 04:29:03;;;;;;;4.75;3.00;;;;;;;22.72;54.12;98336.94;5018666;28;20189;-66
2022/07/05 04:31:28;;;;;;;7.80;3.10;;;;;;;22.89;53.51;98341.03;5017651;28;20637;-66
2022/07/05 04:33:54;;;;;;;6.35;3.00;;;;;;;23.06;53.56;98340.59;5019974;28;20209;-66
2022/07/05 04:36:19;;;;;;;5.20;3.40;;;;;;;23.26;53.60;98335.59;5022078;28;20448;-65
2022/07/05 04:38:45;;;;;;;6.38;3.40;;;;;;;23.29;53.84;98327.28;5016418;28;20185;-66
2022/07/05 04:41:10;;;;;;;9.52;3.25;;;;;;;23.41;53.79;98315.22;5018092;28;20755;-66
2022/07/05 04:43:35;;;;;;;9.02;2.92;;;;;;;23.58;52.61;98320.09;5024058;28;20182;-67
2022/07/05 04:46:01;;;;;;;2.65;2.03;;;;;;;23.32;49.92;98316.38;5019590;28;20289;-66
2022/07/05 04:48:26;;;;;;;4.53;2.80;;;;;;;23.34;52.43;98320.47;5020864;28;20181;-64
2022/07/05 04:50:52;;;;;;;5.90;2.40;;;;;;;23.48;50.82;98332.78;5020555;28;20174;-65
2022/07/05 04:53:17;;;;;;;3.53;2.10;;;;;;;23.58;49.33;98328.03;5012230;28;20233;-64
2022/07/05 04:55:43;;;;;;;2.08;1.98;;;;;;;23.60;48.45;98325.19;5019073;28;20192;-65
2022/07/05 04:58:08;;;;;;;3.13;2.47;;;;;;;23.54;48.41;98320.66;5003425;28;21050;-65
2022/07/05 05:00:34;;;;;;;3.10;2.30;;;;;;;23.48;48.67;98329.34;4996848;28;20183;-65
2022/07/05 05:02:59;;;;;;;7.75;2.67;;;;;;;23.52;49.39;98333.22;4999417;28;20218;-65
2022/07/05 05:05:25;;;;;;;6.22;3.05;;;;;;;23.66;53.23;98333.16;5011303;28;20194;-65
2022/07/05 05:07:50;;;;;;;5.57;2.75;;;;;;;23.76;53.36;98336.31;5014827;28;20202;-64
2022/07/05 05:10:16;;;;;;;9.23;3.78;;;;;;;23.96;53.82;98339.97;5011745;28;20181;-65
2022/07/05 05:12:41;;;;;;;4.30;3.22;;;;;;;23.89;52.50;98333.81;5020043;28;20194;-65
2022/07/05 05:15:10;;;;;;;8.40;2.83;;;;;;;24.03;51.50;98335.59;5014846;28;20233;-65
2022/07/05 05:17:37;;;;;;;2.28;2.15;;;;;;;24.05;49.53;98336.19;5017151;28;20194;-65
2022/07/05 05:20:05;;;;;;;4.28;2.45;;;;;;;24.13;51.00;98333.41;5015819;28;20189;-64
2022/07/05 05:22:30;;;;;;;3.38;2.08;;;;;;;24.24;49.49;98339.00;5016564;28;20751;-65
2022/07/05 05:24:55;;;;;;;2.72;2.53;;;;;;;24.38;48.99;98346.00;5018845;28;20188;-66
2022/07/05 05:27:21;;;;;;;5.30;2.47;;;;;;;24.47;48.64;98341.38;5013990;28;20198;-65
2022/07/05 05:29:46;;;;;;;6.53;3.10;;;;;;;24.60;49.51;98341.47;5014549;28;20725;-66
2022/07/05 05:32:11;;;;;;;7.45;3.00;;;;;;;24.81;51.32;98357.28;5017525;28;20182;-65
2022/07/05 05:34:37;;;;;;;8.73;3.53;;;;;;;24.96;51.49;98356.16;5021907;28;21069;-67
2022/07/05 05:37:02;;;;;;;6.20;2.92;;;;;;;25.12;51.35;98357.63;5012898;28;20178;-65
2022/07/05 05:39:28;;;;;;;10.52;3.17;;;;;;;25.24;50.44;98354.25;5020270;28;20282;-66
2022/07/05 05:41:53;;;;;;;3.22;2.80;;;;;;;25.37;50.14;98356.94;5019761;28;20830;-65
2022/07/05 05:44:19;;;;;;;7.63;3.20;;;;;;;25.29;49.77;98369.56;5021134;28;20801;-66
2022/07/05 05:46:44;;;;;;;6.00;3.03;;;;;;;25.37;49.97;98358.81;5023244;28;20205;-65
2022/07/05 05:49:09;;;;;;;4.78;3.22;;;;;;;25.47;49.07;98352.09;5022373;28;20178;-65
2022/07/05 05:51:35;;;;;;;8.40;3.13;;;;;;;25.57;48.69;98351.72;5027225;28;20558;-65
2022/07/05 05:54:00;;;;;;;4.60;3.30;;;;;;;25.74;48.45;98360.91;5026884;28;20312;-65
2022/07/05 05:56:26;;;;;;;5.30;3.72;;;;;;;25.87;47.99;98368.88;5022524;28;20181;-66
2022/07/05 05:58:52;;;;;;;5.65;3.35;;;;;;;26.01;47.81;98365.28;5021577;28;20264;-66
2022/07/05 06:01:17;;;;;;;6.45;3.53;;;;;;;26.08;46.73;98366.09;5019432;28;20718;-65
2022/07/05 06:03:43;;;;;;;5.10;3.10;;;;;;;26.05;46.82;98371.78;5019737;28;20285;-66
2022/07/05 06:06:08;;;;;;;4.55;2.83;;;;;;;26.15;46.33;98375.69;5021112;28;20198;-66
2022/07/05 06:08:34;;;;;;;8.02;3.20;;;;;;;26.28;46.44;98381.00;5024458;28;20304;-66
2022/07/05 06:10:59;;;;;;;7.28;2.95;;;;;;;26.34;46.17;98385.47;5020776;28;20177;-66
2022/07/05 06:13:25;;;;;;;4.35;3.42;;;;;;;26.44;46.02;98377.91;5020328;28;20406;-66
2022/07/05 06:15:50;;;;;;;8.82;3.22;;;;;;;26.51;46.35;98378.72;5016336;28;20217;-65
2022/07/05 06:18:15;;;;;;;4.88;3.45;;;;;;;26.61;46.39;98378.34;5011089;28;20209;-66
2022/07/05 06:20:41;;;;;;;5.22;3.47;;;;;;;26.68;46.13;98381.78;5019814;28;20262;-66
2022/07/05 06:23:07;;;;;;;11.25;3.65;;;;;;;26.76;46.31;98389.56;4998518;28;20244;-65
2022/07/05 06:25:34;;;;;;;8.68;3.63;;;;;;;26.77;45.91;98378.69;4999942;28;20179;-66
2022/07/05 06:28:02;;;;;;;9.27;4.13;;;;;;;26.83;46.06;98379.72;5021634;28;21162;-66
2022/07/05 06:30:30;;;;;;;12.23;4.28;;;;;;;26.90;45.83;98376.03;5022028;28;20193;-66
2022/07/05 06:32:55;;;;;;;8.10;4.00;;;;;;;26.97;45.71;98373.34;5017822;28;20236;-65
2022/07/05 06:35:22;;;;;;;7.35;4.03;;;;;;;26.97;45.61;98368.84;5017101;28;20220;-67
2022/07/05 06:37:52;;;;;;;5.53;3.60;;;;;;;27.05;45.21;98365.16;5017272;28;20171;-65
2022/07/05 06:40:20;;;;;;;4.72;3.70;;;;;;;27.08;44.81;98362.91;5020498;28;20190;-65
2022/07/05 06:42:46;;;;;;;6.00;3.53;;;;;;;27.10;44.66;98363.50;5019822;28;20193;-65
2022/07/05 06:45:11;;;;;;;4.85;3.63;;;;;;;27.13;44.57;98357.78;5018065;28;20181;-65
2022/07/05 06:47:37;;;;;;;7.90;3.65;;;;;;;27.17;44.74;98353.66;5019890;28;20205;-65
2022/07/05 06:50:05;;;;;;;12.77;3.55;;;;;;;27.13;45.73;98351.63;5018319;28;20174;-65
2022/07/05 06:52:32;;;;;;;7.18;3.55;;;;;;;27.03;45.83;98345.94;5021676;28;20198;-65
2022/07/05 06:54:59;;;;;;;5.60;4.40;;;;;;;27.05;46.03;98339.38;5017865;28;20190;-66
2022/07/05 06:57:24;;;;;;;6.70;3.72;;;;;;;27.03;46.15;98346.75;5021819;28;20682;-65
2022/07/05 06:59:50;;;;;;;8.18;4.00;;;;;;;27.01;46.39;98345.34;5011619;28;20186;-65
2022/07/05 07:02:16;;;;;;;8.50;3.55;;;;;;;27.11;46.21;98337.75;5022555;28;20186;-65
2022/07/05 07:04:42;;;;;;;8.25;4.45;;;;;;;27.20;46.52;98337.31;5001623;28;20656;-65
2022/07/05 07:10:00;;;;;;;3.30;2.42;;;;;;;27.46;44.54;98341.69;4999765;28;21008;-65
2022/07/05 07:12:27;;;;;;;6.13;2.53;;;;;;;27.47;44.27;98335.34;5011020;28;20190;-66
2022/07/05 07:14:52;;;;;;;2.42;2.22;;;;;;;27.43;44.73;98336.78;5026214;28;20577;-65
2022/07/05 07:17:18;;;;;;;4.53;2.70;;;;;;;27.46;43.99;98331.84;5022666;28;20182;-65
2022/07/05 07:19:43;;;;;;;6.38;2.70;;;;;;;27.49;44.37;98336.75;5013038;28;20189;-65
2022/07/05 07:22:09;;;;;;;8.43;3.25;;;;;;;27.59;44.51;98333.63;5019664;28;20556;-65
2022/07/05 07:24:34;;;;;;;5.35;3.08;;;;;;;27.71;44.75;98327.44;5022962;28;20300;-65
2022/07/05 07:27:02;;;;;;;10.40;4.03;;;;;;;27.84;44.28;98335.34;5017361;28;20212;-65
2022/07/05 07:29:28;;;;;;;8.07;3.97;;;;;;;27.93;43.94;98331.38;5018943;28;20228;-66
2022/07/05 07:31:54;;;;;;;11.80;3.67;;;;;;;28.04;44.03;98330.66;5019524;28;20203;-66
2022/07/05 07:34:20;;;;;;;9.25;4.55;;;;;;;28.10;44.21;98329.78;5021528;28;20190;-66
2022/07/05 07:36:45;;;;;;;11.98;4.22;;;;;;;28.16;43.82;98328.91;5019174;28;20192;-65
2022/07/05 07:39:11;;;;;;;7.03;3.70;;;;;;;28.19;43.81;98323.19;5015299;28;20170;-66
2022/07/05 07:41:36;;;;;;;8.05;3.65;;;;;;;28.04;43.51;98325.34;5017077;28;20673;-66
2022/07/05 07:44:02;;;;;;;7.43;3.70;;;;;;;28.11;44.34;98328.75;5010516;28;20182;-66
2022/07/05 07:46:27;;;;;;;5.70;3.60;;;;;;;28.15;43.96;98327.31;5002280;28;20206;-66
2022/07/05 07:48:53;;;;;;;4.88;3.85;;;;;;;28.31;44.21;98331.25;4998029;28;20181;-65
2022/07/05 07:51:21;;;;;;;5.13;3.88;;;;;;;28.41;44.67;98332.44;5000635;28;20240;-66
2022/07/05 07:53:46;;;;;;;9.95;4.10;;;;;;;28.44;44.44;98325.81;5017936;28;20221;-66
2022/07/05 07:56:12;;;;;;;5.75;3.95;;;;;;;28.51;44.21;98330.06;5017947;28;21190;-65
2022/07/05 07:58:37;;;;;;;6.38;3.78;;;;;;;28.31;43.70;98336.56;5019063;28;20257;-65
2022/07/05 08:01:02;;;;;;;10.43;3.45;;;;;;;28.43;43.51;98335.69;5022074;28;20208;-65
2022/07/05 08:03:28;;;;;;;7.40;3.97;;;;;;;28.54;43.90;98337.63;5010537;28;20200;-65
2022/07/05 08:05:54;;;;;;;6.85;4.00;;;;;;;28.59;43.15;98344.94;5016779;28;20703;-65
2022/07/05 08:08:19;;;;;;;5.50;4.00;;;;;;;28.54;43.42;98334.97;4996621;28;20281;-65
2022/07/05 08:10:44;;;;;;;7.03;3.65;;;;;;;28.34;43.55;98347.59;4997908;28;20178;-66
2022/07/05 08:13:10;;;;;;;10.77;4.13;;;;;;;28.37;43.16;98341.06;5007694;28;20188;-65
2022/07/05 08:15:35;;;;;;;8.57;4.00;;;;;;;28.38;44.19;98350.66;5014869;28;20186;-65
2022/07/05 08:23:45;;;;;;;9.80;4.20;;;;;;;28.81;44.43;98360.25;4944763;28;20258;-67
2022/07/05 08:26:10;;;;;;;11.57;3.90;;;;;;;28.94;44.40;98362.81;5003774;28;20687;-65
2022/07/05 08:28:36;;;;;;;8.55;3.85;;;;;;;29.05;43.63;98354.09;5015753;28;20182;-66
2022/07/05 08:31:01;;;;;;;9.25;3.80;;;;;;;29.17;43.00;98365.66;5016545;28;20209;-65
2022/07/05 08:33:27;;;;;;;9.38;3.92;;;;;;;29.17;43.71;98360.31;5018900;28;20635;-65
2022/07/05 08:35:54;;;;;;;8.73;3.80;;;;;;;29.22;44.31;98355.09;5012686;28;20177;-65
2022/07/05 08:38:19;;;;;;;7.85;3.63;;;;;;;29.31;43.55;98356.44;5011095;28;20662;-66
2022/07/05 08:40:49;;;;;;;10.20;3.85;;;;;;;29.41;43.75;98351.38;5008420;28;20189;-65
2022/07/05 08:43:15;;;;;;;7.60;4.35;;;;;;;29.49;43.39;98351.06;5015129;28;20240;-66
2022/07/05 08:45:43;;;;;;;8.90;4.30;;;;;;;29.56;43.50;98349.13;5010530;28;20639;-66
2022/07/05 08:48:10;;;;;;;10.73;4.75;;;;;;;29.49;42.51;98344.94;5024235;28;20209;-66
2022/07/05 08:50:39;;;;;;;10.05;4.03;;;;;;;29.53;42.41;98343.44;5014923;28;20686;-66
2022/07/05 08:53:05;;;;;;;7.40;3.90;;;;;;;29.42;42.65;98344.19;5016587;28;20746;-66
2022/07/05 08:55:34;;;;;;;8.57;4.30;;;;;;;29.52;43.12;98345.28;5013823;28;20187;-66
2022/07/05 08:58:00;;;;;;;14.20;4.40;;;;;;;29.65;42.82;98338.97;5016093;28;20194;-66
2022/07/05 09:00:26;;;;;;;7.80;3.67;;;;;;;29.74;42.12;98337.63;5024679;28;20182;-66
2022/07/05 09:02:52;;;;;;;4.22;3.67;;;;;;;29.72;41.53;98327.16;5015196;28;20572;-65
2022/07/05 09:05:18;;;;;;;19.83;15.95;;;;;;;29.74;42.04;98329.59;5013446;28;20174;-66
2022/07/05 09:08:08;;;;;;;15.98;6.82;;;;;;;29.80;42.30;98328.69;5021010;28;20767;-66
2022/07/05 09:10:36;;;;;;;7.75;4.07;;;;;;;29.89;40.75;98335.31;5014714;28;20501;-66
2022/07/05 09:13:02;;;;;;;8.23;3.90;;;;;;;29.83;41.35;98320.22;5016419;28;20197;-66
2022/07/05 09:15:27;;;;;;;5.63;3.90;;;;;;;29.90;41.33;98327.09;5018972;28;20182;-66
2022/07/05 09:17:53;;;;;;;5.70;3.40;;;;;;;29.95;41.17;98305.03;5026188;28;20181;-66
2022/07/05 09:20:19;;;;;;;7.55;3.80;;;;;;;30.08;40.43;98315.53;5018794;28;20178;-66
2022/07/05 09:22:53;;;;;;;4.32;3.38;;;;;;;29.93;40.52;98315.13;5018904;28;20685;-65
2022/07/05 09:25:28;;;;;;;5.40;3.90;;;;;;;29.95;40.80;98303.19;5018195;28;20186;-65
2022/07/05 09:27:59;;;;;;;8.80;3.30;;;;;;;30.07;40.89;98309.34;5024480;28;20201;-66
2022/07/05 09:30:28;;;;;;;6.22;3.58;;;;;;;30.26;40.82;98308.22;5014685;28;20211;-65
2022/07/05 09:33:15;;;;;;;5.82;3.72;;;;;;;30.39;39.77;98307.19;5015153;28;20193;-66
2022/07/05 09:35:54;;;;;;;7.30;3.72;;;;;;;30.34;39.48;98299.88;5016777;28;20185;-67
2022/07/05 09:38:21;;;;;;;5.38;3.05;;;;;;;30.29;38.54;98302.44;5020679;28;20184;-66
2022/07/05 09:40:54;;;;;;;10.57;3.40;;;;;;;30.40;38.51;98306.13;5022204;28;20675;-65
2022/07/05 09:43:24;;;;;;;9.55;3.53;;;;;;;30.33;38.98;98308.94;5020338;28;20173;-66
2022/07/05 09:46:01;;;;;;;10.05;3.00;;;;;;;30.52;37.30;98301.59;5018980;28;20190;-66
2022/07/05 09:48:28;;;;;;;4.07;2.97;;;;;;;30.67;37.43;98304.66;5006748;28;20213;-66
2022/07/05 09:51:05;;;;;;;6.22;3.25;;;;;;;30.77;37.35;98305.66;5016335;28;20184;-65
2022/07/05 09:53:47;;;;;;;7.93;2.75;;;;;;;30.93;37.05;98304.09;5015492;28;20326;-66
2022/07/05 09:56:13;;;;;;;6.07;3.15;;;;;;;30.92;36.62;98300.66;5016243;28;20319;-66
2022/07/05 09:58:39;;;;;;;5.38;3.10;;;;;;;30.87;36.36;98289.84;5017642;28;20284;-66
2022/07/05 10:01:29;;;;;;;3.75;3.13;;;;;;;31.09;35.42;98298.84;5017132;28;20332;-65
2022/07/05 10:04:03;;;;;;;5.07;3.03;;;;;;;31.20;36.15;98287.34;5006385;28;20229;-65
2022/07/05 10:06:32;;;;;;;13.52;3.30;;;;;;;31.43;35.99;98294.44;5024087;28;20317;-66
2022/07/05 10:08:59;;;;;;;9.85;3.38;;;;;;;31.54;36.02;98290.91;5019996;28;20606;-66
2022/07/05 10:11:25;;;;;;;6.40;3.35;;;;;;;31.59;36.80;98291.78;5017465;28;20214;-66
2022/07/05 10:13:52;;;;;;;5.63;3.33;;;;;;;31.67;35.75;98291.41;5015018;28;20186;-66
2022/07/05 10:16:19;;;;;;;5.13;3.60;;;;;;;31.85;36.51;98279.66;5015773;28;20449;-66
2022/07/05 10:18:54;;;;;;;5.43;3.15;;;;;;;31.98;36.55;98282.00;5020579;28;20189;-65
2022/07/05 10:21:20;;;;;;;8.38;2.97;;;;;;;31.99;35.81;98273.75;5011489;28;20589;-65
2022/07/05 10:23:48;;;;;;;8.05;3.58;;;;;;;32.17;36.21;98284.19;5018809;28;20200;-65
2022/07/05 10:26:15;;;;;;;11.20;3.25;;;;;;;32.34;35.99;98282.34;5025725;28;20205;-65
2022/07/05 10:28:46;;;;;;;6.82;3.00;;;;;;;32.54;35.40;98279.97;5019466;28;20615;-66
2022/07/05 10:31:15;;;;;;;5.45;3.10;;;;;;;32.65;35.78;98279.00;5016519;28;20217;-67
2022/07/05 10:33:42;;;;;;;5.63;3.10;;;;;;;32.81;34.23;98288.91;5019568;28;20290;-66
2022/07/05 10:36:13;;;;;;;7.10;3.65;;;;;;;32.62;34.10;98276.03;4998103;28;20186;-66
2022/07/05 10:38:42;;;;;;;8.35;3.25;;;;;;;32.64;34.61;98282.75;5019309;28;20264;-65
2022/07/05 10:41:12;;;;;;;11.45;3.25;;;;;;;32.65;35.63;98273.66;5018872;28;20188;-66
2022/07/05 10:43:38;;;;;;;6.30;3.30;;;;;;;32.69;35.43;98277.47;5025802;28;20622;-66
2022/07/05 10:46:07;;;;;;;3.75;3.20;;;;;;;32.64;35.63;98272.03;5021147;28;20228;-66
2022/07/05 10:48:33;;;;;;;4.28;2.95;;;;;;;32.57;35.22;98258.00;5012662;28;20189;-66
2022/07/05 10:51:07;;;;;;;5.47;2.97;;;;;;;32.65;34.78;98262.94;5025041;28;20217;-66
2022/07/05 10:53:35;;;;;;;8.85;3.50;;;;;;;32.98;34.48;98257.47;5013872;28;20271;-66
2022/07/05 10:56:04;;;;;;;5.78;3.38;;;;;;;33.18;33.80;98265.75;5020810;28;20563;-65
2022/07/05 10:58:37;;;;;;;7.65;3.40;;;;;;;33.11;34.49;98259.75;5017075;28;20216;-65
2022/07/05 11:01:11;;;;;;;8.90;3.33;;;;;;;33.29;34.05;98251.38;5022752;28;20244;-66
2022/07/05 11:03:38;;;;;;;4.68;3.40;;;;;;;33.50;34.40;98255.91;5017055;28;20216;-65
2022/07/05 11:06:05;;;;;;;3.67;3.38;;;;;;;33.53;33.91;98250.03;5015987;28;20272;-66
2022/07/05 11:08:56;;;;;;;10.05;3.83;;;;;;;33.67;34.40;98253.91;5017325;28;20678;-66
2022/07/05 11:11:42;;;;;;;5.32;3.65;;;;;;;33.77;34.07;98245.97;5014596;28;20182;-66
2022/07/05 11:14:20;;;;;;;5.25;3.10;;;;;;;33.82;34.30;98240.66;5011710;28;20771;-65
2022/07/05 11:16:47;;;;;;;5.97;3.42;;;;;;;33.90;33.76;98245.53;5009692;28;20186;-66
2022/07/05 11:19:18;;;;;;;5.25;3.45;;;;;;;34.00;33.67;98245.63;4998249;28;20353;-66
2022/07/05 11:22:05;;;;;;;4.57;3.53;;;;;;;34.03;32.58;98233.53;5020143;28;20205;-66
2022/07/05 11:24:35;;;;;;;6.28;3.40;;;;;;;34.10;33.19;98240.28;5013603;28;20675;-66
2022/07/05 11:27:04;;;;;;;5.63;3.42;;;;;;;34.20;33.00;98239.53;5018633;28;20829;-66
2022/07/05 11:29:51;;;;;;;4.47;3.80;;;;;;;34.31;32.06;98235.88;5018584;28;20252;-66
2022/07/05 11:32:19;;;;;;;6.00;3.45;;;;;;;34.31;31.78;98236.69;5023941;28;20256;-66
2022/07/05 11:34:47;;;;;;;6.03;3.80;;;;;;;34.48;32.57;98226.56;5024975;28;20209;-67
2022/07/05 11:37:20;;;;;;;4.30;3.58;;;;;;;34.78;32.91;98224.03;5024607;28;20351;-66
2022/07/05 11:39:48;;;;;;;4.43;3.40;;;;;;;34.97;32.42;98221.69;5017463;28;20204;-66